Time;durP1;ratioP1;P1;durP2;ratioP2;P2;SDS_P1;SDS_P2;PMS_P1;PMS_P2;Temp;Humidity;BMP_temperature;BMP_pressure;BME280_temperature;BME280_humidity;BME280_pressure;Samples;Min_cycle;Max_cycle;Signal;HPM_P1;HPM_P2
2023/03/07 00:01:30;;;;;;;13.88;6.85;;;9.00;99.90;;;;;;7405565;19;19959;-73
2023/03/07 00:03:58;;;;;;;13.75;6.43;;;9.00;99.90;;;;;;7407162;19;20536;-73
2023/03/07 00:06:25;;;;;;;11.75;5.70;;;9.00;99.90;;;;;;7406982;19;20298;-73
2023/03/07 00:09:01;;;;;;;9.52;4.72;;;9.00;99.90;;;;;;7405517;19;20326;-72
2023/03/07 00:11:27;;;;;;;10.23;4.50;;;9.00;99.90;;;;;;7405964;19;19922;-73
2023/03/07 00:13:54;;;;;;;11.77;4.85;;;9.00;99.80;;;;;;7403516;19;19946;-72
2023/03/07 00:16:21;;;;;;;9.50;4.18;;;9.10;99.90;;;;;;7401688;19;19915;-74
2023/03/07 00:18:47;;;;;;;8.73;4.63;;;9.20;99.50;;;;;;7404546;19;19951;-73
2023/03/07 00:21:16;;;;;;;8.82;4.35;;;9.10;99.60;;;;;;7403693;19;19915;-73
2023/03/07 00:23:43;;;;;;;9.38;4.55;;;9.00;99.70;;;;;;7403759;19;20420;-73
2023/03/07 00:26:18;;;;;;;9.15;4.20;;;9.00;99.80;;;;;;7382047;19;19925;-73
2023/03/07 00:28:49;;;;;;;7.97;3.63;;;8.90;99.90;;;;;;7374625;19;19918;-73
2023/03/07 00:31:16;;;;;;;10.75;3.67;;;8.90;99.90;;;;;;7349078;19;19921;-73
2023/03/07 00:33:42;;;;;;;7.65;3.70;;;8.80;99.90;;;;;;7404141;19;19927;-73
2023/03/07 00:36:15;;;;;;;9.27;3.95;;;8.80;99.90;;;;;;7402383;19;19921;-75
2023/03/07 00:38:41;;;;;;;5.63;3.00;;;8.80;99.90;;;;;;7383851;19;19988;-74
2023/03/07 00:41:10;;;;;;;6.85;3.42;;;8.90;99.90;;;;;;7402371;19;19986;-73
2023/03/07 00:43:36;;;;;;;7.10;3.63;;;8.90;99.90;;;;;;7405154;19;20242;-73
2023/03/07 00:46:03;;;;;;;6.63;3.10;;;9.00;99.90;;;;;;7404478;19;20227;-72
2023/03/07 00:48:31;;;;;;;7.60;3.70;;;9.00;99.90;;;;;;7406239;19;20435;-74
2023/03/07 00:50:57;;;;;;;8.25;3.70;;;9.00;99.90;;;;;;7404043;19;19911;-73
2023/03/07 00:53:23;;;;;;;7.53;3.63;;;9.00;99.90;;;;;;7400608;19;19915;-74
2023/03/07 00:55:55;;;;;;;7.50;3.70;;;8.90;99.90;;;;;;7406171;19;20003;-73
2023/03/07 00:58:21;;;;;;;7.90;3.63;;;8.90;99.90;;;;;;7402619;19;20327;-72
2023/03/07 01:00:46;;;;;;;9.05;4.80;;;8.80;99.90;;;;;;7403520;19;19925;-74
2023/03/07 01:03:12;;;;;;;8.07;3.60;;;8.80;99.90;;;;;;7371085;19;19933;-74
2023/03/07 01:05:39;;;;;;;10.23;4.22;;;8.90;99.90;;;;;;7402624;19;19951;-73
2023/03/07 01:08:05;;;;;;;8.70;4.28;;;8.80;99.90;;;;;;7401912;19;20356;-73
2023/03/07 01:10:32;;;;;;;6.60;3.67;;;9.00;99.90;;;;;;7402138;19;19918;-73
2023/03/07 01:13:01;;;;;;;9.38;4.03;;;9.00;99.90;;;;;;7402091;19;19937;-74
2023/03/07 01:15:27;;;;;;;9.45;4.05;;;8.90;99.90;;;;;;7400842;19;19935;-72
2023/03/07 01:17:53;;;;;;;10.63;4.28;;;8.90;99.90;;;;;;7401755;19;19910;-72
2023/03/07 01:20:19;;;;;;;9.77;4.20;;;8.80;99.90;;;;;;7403313;19;19918;-73
2023/03/07 01:22:45;;;;;;;9.88;4.90;;;8.80;99.90;;;;;;7402174;19;20331;-73
2023/03/07 01:25:12;;;;;;;8.82;4.57;;;8.90;99.90;;;;;;7401000;19;19918;-72
2023/03/07 01:27:38;;;;;;;7.97;3.90;;;8.80;99.90;;;;;;7406042;19;20502;-73
2023/03/07 01:30:06;;;;;;;8.63;3.97;;;8.90;99.90;;;;;;7407389;19;19927;-72
2023/03/07 01:32:32;;;;;;;6.78;3.30;;;8.70;99.90;;;;;;7378124;19;19992;-73
2023/03/07 01:34:57;;;;;;;8.30;4.25;;;8.70;99.90;;;;;;7408213;19;19923;-72
2023/03/07 01:37:23;;;;;;;8.95;4.43;;;8.70;99.90;;;;;;7377307;19;19949;-73
2023/03/07 01:39:53;;;;;;;9.48;5.07;;;8.60;99.90;;;;;;7410044;19;19918;-73
2023/03/07 01:42:20;;;;;;;9.98;4.68;;;8.60;99.90;;;;;;7409122;19;19911;-73
2023/03/07 01:45:07;;;;;;;8.52;4.50;;;8.60;99.90;;;;;;7409939;19;19921;-73
2023/03/07 01:47:35;;;;;;;12.90;5.47;;;8.60;99.90;;;;;;7405888;19;19922;-73
2023/03/07 01:50:06;;;;;;;11.45;5.38;;;8.70;99.90;;;;;;7410512;19;19914;-73
2023/03/07 01:52:53;;;;;;;11.55;5.38;;;8.70;99.90;;;;;;7407733;19;19926;-73
2023/03/07 01:55:32;;;;;;;10.88;5.78;;;8.90;99.90;;;;;;7407094;19;19918;-72
2023/03/07 01:58:06;;;;;;;11.02;4.88;;;8.80;99.90;;;;;;7411641;19;19978;-73
2023/03/07 02:00:35;;;;;;;8.32;4.70;;;8.80;99.90;;;;;;7409204;19;19943;-74
2023/03/07 02:03:09;;;;;;;10.77;4.38;;;8.70;99.90;;;;;;7387995;19;19922;-73
2023/03/07 02:05:41;;;;;;;11.05;4.65;;;8.80;99.90;;;;;;7408344;19;19922;-73
2023/03/07 02:08:10;;;;;;;10.55;4.90;;;8.70;99.90;;;;;;7409442;19;19915;-73
2023/03/07 02:10:38;;;;;;;13.25;5.25;;;9.00;99.90;;;;;;7406972;19;19953;-72
2023/03/07 02:13:03;;;;;;;13.70;6.07;;;9.30;99.30;;;;;;7395464;19;19911;-73
2023/03/07 02:15:29;;;;;;;10.05;5.28;;;9.40;98.40;;;;;;7406538;19;19927;-74
2023/03/07 02:17:59;;;;;;;11.63;5.82;;;9.60;97.70;;;;;;7386991;19;19921;-72
2023/03/07 02:20:37;;;;;;;10.20;5.13;;;9.60;96.90;;;;;;7408268;19;20338;-74
2023/03/07 02:23:03;;;;;;;11.35;5.50;;;9.70;97.00;;;;;;7407508;19;19956;-73
2023/03/07 02:25:45;;;;;;;10.02;5.20;;;9.70;96.50;;;;;;7406892;19;19938;-74
2023/03/07 02:28:14;;;;;;;11.13;5.50;;;9.90;96.40;;;;;;7404658;19;19928;-73
2023/03/07 02:31:04;;;;;;;10.75;5.47;;;9.90;96.50;;;;;;7405948;19;19935;-73
2023/03/07 02:33:30;;;;;;;13.18;5.78;;;9.80;96.60;;;;;;7403561;19;19941;-74
2023/03/07 02:36:00;;;;;;;13.00;5.43;;;9.70;96.90;;;;;;7405747;19;19931;-74
2023/03/07 02:38:28;;;;;;;10.80;5.03;;;9.70;96.70;;;;;;7407559;19;19915;-73
2023/03/07 02:40:55;;;;;;;9.95;4.65;;;9.80;96.00;;;;;;7405108;19;19941;-73
2023/03/07 02:43:22;;;;;;;9.82;4.50;;;9.80;96.00;;;;;;7404868;19;19914;-73
2023/03/07 02:45:47;;;;;;;11.63;4.80;;;9.90;95.70;;;;;;7407695;19;19915;-73
2023/03/07 02:48:13;;;;;;;9.07;4.07;;;9.80;95.50;;;;;;7406973;19;20319;-73
2023/03/07 02:50:39;;;;;;;8.20;3.90;;;9.90;94.80;;;;;;7407145;19;19938;-74
2023/03/07 02:53:05;;;;;;;6.35;3.45;;;10.10;93.80;;;;;;7407561;19;19935;-74
2023/03/07 02:55:32;;;;;;;6.47;3.08;;;10.30;93.00;;;;;;7406059;19;19927;-74
2023/03/07 02:57:59;;;;;;;6.70;3.22;;;10.40;92.40;;;;;;7409170;19;19928;-72
2023/03/07 03:00:24;;;;;;;7.00;3.20;;;10.40;92.00;;;;;;7405033;19;20280;-74
2023/03/07 03:02:50;;;;;;;9.00;3.25;;;10.40;91.70;;;;;;7408570;19;20381;-73
2023/03/07 03:05:16;;;;;;;8.55;4.28;;;10.40;91.50;;;;;;7404953;19;19926;-74
2023/03/07 03:07:42;;;;;;;8.27;3.60;;;10.30;91.40;;;;;;7408246;19;19918;-73
2023/03/07 03:10:08;;;;;;;7.95;3.55;;;10.40;91.20;;;;;;7403675;19;19923;-73
2023/03/07 03:12:34;;;;;;;8.25;4.05;;;10.30;91.10;;;;;;7406206;19;19950;-73
2023/03/07 03:15:00;;;;;;;8.32;3.70;;;10.30;91.00;;;;;;7406538;19;19918;-74
2023/03/07 03:17:26;;;;;;;7.68;3.58;;;10.20;90.90;;;;;;7403244;19;19988;-73
2023/03/07 03:19:53;;;;;;;8.43;3.90;;;10.20;90.90;;;;;;7409134;19;19931;-73
2023/03/07 03:22:19;;;;;;;7.88;3.75;;;10.20;90.90;;;;;;7405901;19;19925;-73
2023/03/07 03:24:46;;;;;;;7.68;3.90;;;10.30;90.60;;;;;;7405360;19;19931;-73
2023/03/07 03:27:12;;;;;;;8.52;4.15;;;10.30;90.30;;;;;;7406205;19;19954;-74
2023/03/07 03:29:38;;;;;;;7.30;3.58;;;10.30;90.30;;;;;;7407038;19;19918;-73
2023/03/07 03:32:04;;;;;;;8.07;4.32;;;10.30;90.20;;;;;;7403950;19;19922;-72
2023/03/07 03:34:30;;;;;;;9.15;4.45;;;10.30;90.10;;;;;;7406206;19;19918;-72
2023/03/07 03:36:56;;;;;;;9.02;4.60;;;10.30;90.20;;;;;;7405046;19;19986;-74
2023/03/07 03:39:24;;;;;;;9.73;5.07;;;10.20;90.10;;;;;;7399606;19;19998;-73
2023/03/07 03:41:50;;;;;;;8.40;4.20;;;10.20;90.20;;;;;;7407929;19;19998;-74
2023/03/07 03:44:16;;;;;;;10.05;3.92;;;10.10;90.40;;;;;;7402616;19;19918;-73
2023/03/07 03:46:42;;;;;;;8.30;4.20;;;10.00;90.50;;;;;;7405271;19;19926;-72
2023/03/07 03:49:12;;;;;;;9.35;4.50;;;10.00;90.60;;;;;;7403539;19;20290;-73
2023/03/07 03:51:38;;;;;;;8.18;4.03;;;10.00;90.50;;;;;;7402684;19;19931;-72
2023/03/07 03:54:04;;;;;;;7.68;3.95;;;10.10;90.30;;;;;;7404728;19;19958;-73
2023/03/07 03:56:30;;;;;;;8.63;4.25;;;10.10;90.10;;;;;;7403015;19;19919;-73
2023/03/07 03:58:58;;;;;;;8.45;3.90;;;10.10;90.00;;;;;;7406418;19;19914;-73
2023/03/07 04:01:26;;;;;;;10.60;4.32;;;10.10;89.70;;;;;;7407458;19;19930;-72
2023/03/07 04:03:53;;;;;;;8.68;4.07;;;10.10;89.50;;;;;;7405482;19;20251;-74
2023/03/07 04:06:25;;;;;;;7.28;3.67;;;10.10;88.70;;;;;;7403561;19;19918;-73
2023/03/07 04:08:52;;;;;;;8.10;4.25;;;10.20;88.60;;;;;;7403777;19;19937;-74
2023/03/07 04:11:18;;;;;;;8.27;3.80;;;10.20;88.20;;;;;;7403651;19;19918;-73
2023/03/07 04:13:44;;;;;;;9.32;3.42;;;10.20;87.40;;;;;;7405872;19;19919;-73
2023/03/07 04:16:11;;;;;;;7.28;3.20;;;10.30;86.60;;;;;;7406953;19;19914;-73
2023/03/07 04:18:38;;;;;;;7.00;3.45;;;10.20;86.30;;;;;;7405687;19;19906;-73
2023/03/07 04:21:05;;;;;;;8.32;3.33;;;10.20;86.60;;;;;;7402932;19;19955;-72
2023/03/07 04:23:31;;;;;;;7.13;2.85;;;10.10;87.20;;;;;;7404315;19;19910;-72
2023/03/07 04:25:59;;;;;;;9.75;3.67;;;10.10;86.80;;;;;;7403368;19;19923;-73
2023/03/07 04:28:48;;;;;;;7.30;3.13;;;10.20;86.30;;;;;;7403948;19;19911;-74
2023/03/07 04:31:22;;;;;;;5.75;2.88;;;10.20;86.60;;;;;;7402062;19;19982;-73
2023/03/07 04:33:48;;;;;;;7.43;3.30;;;10.10;86.20;;;;;;7402919;19;19930;-73
2023/03/07 04:36:15;;;;;;;8.50;3.00;;;10.20;85.70;;;;;;7405313;19;19915;-73
2023/03/07 04:38:41;;;;;;;8.00;3.58;;;10.10;85.60;;;;;;7403096;19;19927;-74
2023/03/07 04:41:11;;;;;;;7.97;2.90;;;10.10;85.40;;;;;;7403717;19;19915;-72
2023/03/07 04:43:37;;;;;;;7.40;3.15;;;10.10;85.30;;;;;;7375775;19;19935;-72
2023/03/07 04:46:03;;;;;;;6.40;2.97;;;10.10;84.30;;;;;;7382756;19;19931;-73
2023/03/07 04:48:30;;;;;;;7.25;2.83;;;10.10;84.80;;;;;;7404777;19;19986;-73
2023/03/07 04:50:56;;;;;;;7.18;2.72;;;10.10;83.90;;;;;;7402639;19;19919;-73
2023/03/07 04:53:22;;;;;;;5.60;2.72;;;10.20;83.70;;;;;;7403009;19;19938;-73
2023/03/07 04:55:48;;;;;;;5.78;2.83;;;10.20;83.90;;;;;;7404246;19;19919;-74
2023/03/07 04:58:14;;;;;;;6.05;2.67;;;10.20;84.00;;;;;;7403853;19;19919;-74
2023/03/07 05:00:41;;;;;;;7.25;2.75;;;10.30;83.60;;;;;;7403486;19;19910;-73
2023/03/07 05:03:09;;;;;;;6.32;3.08;;;10.30;83.80;;;;;;7399313;19;20250;-73
2023/03/07 05:05:35;;;;;;;7.60;2.83;;;10.30;83.70;;;;;;7402541;19;19942;-73
2023/03/07 05:08:03;;;;;;;9.40;2.97;;;10.20;83.80;;;;;;7400428;19;19923;-72
2023/03/07 05:10:31;;;;;;;6.88;3.20;;;10.20;83.80;;;;;;7404128;19;19922;-74
2023/03/07 05:12:58;;;;;;;6.38;3.22;;;10.20;84.10;;;;;;7404366;19;19938;-72
2023/03/07 05:15:24;;;;;;;7.13;3.17;;;10.30;84.20;;;;;;7403699;19;19922;-74
2023/03/07 05:17:50;;;;;;;7.13;3.05;;;10.30;84.00;;;;;;7401719;19;20666;-73
2023/03/07 05:20:16;;;;;;;9.32;3.65;;;10.30;83.80;;;;;;7403177;19;20558;-74
2023/03/07 05:22:42;;;;;;;6.70;3.42;;;10.30;83.90;;;;;;7406156;19;19918;-73
2023/03/07 05:25:08;;;;;;;9.00;3.92;;;10.30;84.00;;;;;;7401537;19;19918;-74
2023/03/07 05:27:34;;;;;;;9.20;4.05;;;10.40;84.40;;;;;;7372049;19;19913;-73
2023/03/07 05:30:00;;;;;;;8.05;3.90;;;10.40;84.90;;;;;;7403781;19;19922;-73
2023/03/07 05:32:25;;;;;;;7.07;3.50;;;10.30;84.70;;;;;;7395984;19;19919;-74
2023/03/07 05:34:51;;;;;;;10.32;5.13;;;10.20;84.90;;;;;;7400492;19;19922;-73
2023/03/07 05:37:17;;;;;;;13.30;7.13;;;10.20;88.20;;;;;;7402120;19;19915;-73
2023/03/07 05:39:43;;;;;;;16.65;7.95;;;10.00;90.60;;;;;;7404656;19;20021;-73
2023/03/07 05:42:09;;;;;;;16.27;8.02;;;9.80;91.50;;;;;;7399208;19;20342;-73
2023/03/07 05:44:34;;;;;;;16.42;9.18;;;9.70;92.30;;;;;;7399088;19;19986;-73
2023/03/07 05:47:00;;;;;;;13.73;7.50;;;9.70;92.30;;;;;;7397330;19;20284;-73
2023/03/07 05:49:26;;;;;;;18.25;8.77;;;9.50;92.40;;;;;;7400112;19;19930;-73
2023/03/07 05:51:52;;;;;;;15.70;8.60;;;9.50;92.50;;;;;;7399280;19;20560;-73
2023/03/07 05:54:18;;;;;;;15.20;8.52;;;9.40;92.90;;;;;;7402785;19;19922;-74
2023/03/07 05:56:44;;;;;;;17.17;9.10;;;9.30;93.30;;;;;;7400396;19;19921;-72
2023/03/07 05:59:14;;;;;;;17.42;9.52;;;9.30;94.30;;;;;;7401687;19;20513;-72
2023/03/07 06:01:40;;;;;;;19.27;9.65;;;9.20;94.40;;;;;;7380877;19;19918;-73
2023/03/07 06:04:06;;;;;;;16.60;8.95;;;9.20;94.50;;;;;;7401169;19;19927;-73
2023/03/07 06:06:33;;;;;;;16.42;8.52;;;9.10;94.50;;;;;;7402251;19;19915;-73
2023/03/07 06:08:59;;;;;;;18.92;8.98;;;9.10;94.30;;;;;;7403173;19;19950;-73
2023/03/07 06:11:25;;;;;;;19.63;9.20;;;9.10;94.10;;;;;;7397905;19;19949;-74
2023/03/07 06:13:53;;;;;;;15.13;8.20;;;9.10;94.10;;;;;;7407645;19;19957;-74
2023/03/07 06:16:19;;;;;;;15.77;8.38;;;9.10;94.10;;;;;;7409956;19;19915;-73
2023/03/07 06:18:45;;;;;;;18.35;8.93;;;9.00;94.20;;;;;;7407694;19;19915;-74
2023/03/07 06:21:15;;;;;;;15.50;7.75;;;9.10;94.00;;;;;;7408317;19;19910;-73
2023/03/07 06:23:41;;;;;;;16.88;7.97;;;9.10;93.90;;;;;;7408309;19;20343;-73
2023/03/07 06:26:09;;;;;;;14.50;7.85;;;9.10;94.00;;;;;;7386841;19;19910;-75
2023/03/07 06:28:35;;;;;;;14.05;8.25;;;9.10;94.00;;;;;;7408997;19;19914;-73
2023/03/07 06:31:10;;;;;;;15.80;8.68;;;9.00;94.20;;;;;;7408251;19;19950;-72
2023/03/07 06:33:37;;;;;;;16.00;8.93;;;9.00;94.40;;;;;;7406043;19;19974;-74
2023/03/07 06:36:11;;;;;;;17.38;8.68;;;9.10;94.40;;;;;;7407396;19;19918;-74
2023/03/07 06:38:37;;;;;;;14.25;7.93;;;9.20;94.50;;;;;;7405114;19;19922;-73
2023/03/07 06:41:03;;;;;;;14.75;6.90;;;9.30;94.10;;;;;;7385880;19;19918;-73
2023/03/07 06:43:29;;;;;;;14.30;7.78;;;9.50;93.60;;;;;;7408431;19;19944;-74
2023/03/07 06:45:55;;;;;;;18.00;8.98;;;9.50;93.30;;;;;;7410902;19;19923;-75
2023/03/07 06:48:21;;;;;;;16.25;8.45;;;9.50;93.30;;;;;;7407457;19;20503;-73
2023/03/07 06:50:47;;;;;;;16.35;8.80;;;9.60;93.60;;;;;;7407169;19;19931;-74
2023/03/07 06:53:13;;;;;;;17.25;9.45;;;9.60;93.70;;;;;;7405454;19;19939;-75
2023/03/07 06:55:39;;;;;;;15.75;9.10;;;9.60;93.60;;;;;;7375256;19;19918;-72
2023/03/07 06:58:05;;;;;;;17.20;8.90;;;9.60;93.70;;;;;;7404360;19;19922;-73
2023/03/07 07:00:31;;;;;;;20.25;8.52;;;9.70;93.60;;;;;;7408868;19;19942;-74
2023/03/07 07:02:57;;;;;;;19.65;9.55;;;9.70;93.60;;;;;;7409102;19;20014;-73
2023/03/07 07:05:23;;;;;;;17.30;9.23;;;9.70;93.70;;;;;;7407627;19;20344;-73
2023/03/07 07:07:49;;;;;;;25.58;10.45;;;9.70;93.80;;;;;;7404854;19;19938;-73
2023/03/07 07:10:14;;;;;;;21.27;10.60;;;9.80;94.10;;;;;;7405791;19;20026;-75
2023/03/07 07:12:40;;;;;;;18.17;9.80;;;9.80;94.00;;;;;;7402491;19;19918;-74
2023/03/07 07:15:08;;;;;;;22.85;10.55;;;10.00;94.10;;;;;;7400513;19;19929;-73
2023/03/07 07:17:37;;;;;;;16.00;8.75;;;10.00;94.00;;;;;;7407822;19;19918;-73
2023/03/07 07:20:06;;;;;;;13.48;6.65;;;10.40;92.90;;;;;;7405010;19;19927;-73
2023/03/07 07:22:33;;;;;;;16.13;7.10;;;10.60;91.60;;;;;;7407426;19;19919;-72
2023/03/07 07:24:59;;;;;;;13.27;6.53;;;10.90;91.40;;;;;;7405117;19;19922;-73
2023/03/07 07:27:27;;;;;;;18.92;6.65;;;11.00;90.70;;;;;;7407514;19;19956;-73
2023/03/07 07:29:53;;;;;;;12.88;5.22;;;11.10;90.30;;;;;;7407536;19;19922;-74
2023/03/07 07:32:19;;;;;;;10.48;4.88;;;11.40;89.90;;;;;;7403212;19;19935;-72
2023/03/07 07:34:45;;;;;;;16.02;8.10;;;11.50;89.00;;;;;;7407099;19;20715;-73
2023/03/07 07:37:10;;;;;;;16.15;8.35;;;11.50;89.80;;;;;;7405436;19;19917;-74
2023/03/07 07:39:40;;;;;;;16.42;9.00;;;11.50;90.30;;;;;;7409469;19;19919;-75
2023/03/07 07:42:06;;;;;;;14.48;6.88;;;11.60;90.10;;;;;;7402427;19;19942;-73
2023/03/07 07:44:31;;;;;;;14.43;7.13;;;11.70;89.00;;;;;;7406044;19;19922;-74
2023/03/07 07:46:59;;;;;;;19.65;9.00;;;11.90;88.30;;;;;;7406583;19;19932;-73
2023/03/07 07:49:25;;;;;;;22.73;11.32;;;11.90;89.80;;;;;;7404097;19;20026;-74
2023/03/07 07:51:51;;;;;;;22.85;12.68;;;11.80;90.40;;;;;;7407101;19;20321;-74
2023/03/07 07:54:17;;;;;;;23.73;12.40;;;11.80;90.70;;;;;;7406866;19;20275;-73
2023/03/07 07:56:43;;;;;;;21.77;11.70;;;11.80;90.80;;;;;;7405310;19;19998;-74
2023/03/07 07:59:09;;;;;;;23.05;11.63;;;11.80;90.80;;;;;;7406127;19;19922;-74
2023/03/07 08:01:35;;;;;;;21.70;13.30;;;11.90;90.70;;;;;;7406775;19;19935;-73
2023/03/07 08:04:01;;;;;;;22.33;12.57;;;11.90;90.60;;;;;;7407250;19;19925;-73
2023/03/07 08:06:27;;;;;;;18.58;9.50;;;12.00;90.50;;;;;;7402948;19;20251;-74
2023/03/07 08:08:54;;;;;;;18.75;10.32;;;12.00;89.10;;;;;;7405811;19;19924;-74
2023/03/07 08:11:21;;;;;;;18.30;8.60;;;11.90;89.20;;;;;;7402438;19;19918;-73
2023/03/07 08:13:48;;;;;;;16.50;9.40;;;12.00;88.70;;;;;;7398960;19;19922;-75
2023/03/07 08:16:19;;;;;;;18.98;9.30;;;12.10;88.70;;;;;;7404056;19;20283;-74
2023/03/07 08:18:52;;;;;;;15.38;6.53;;;12.20;88.60;;;;;;7403553;19;19926;-75
2023/03/07 08:21:18;;;;;;;10.15;4.88;;;12.50;86.50;;;;;;7342927;19;19943;-74
2023/03/07 08:23:44;;;;;;;15.60;6.35;;;12.70;86.10;;;;;;7404701;19;19914;-73
2023/03/07 08:26:12;;;;;;;13.02;6.72;;;12.80;86.10;;;;;;7403109;19;19939;-75
2023/03/07 08:28:39;;;;;;;11.23;5.65;;;12.90;85.90;;;;;;7401452;19;19914;-74
2023/03/07 08:31:11;;;;;;;13.40;7.47;;;13.00;86.00;;;;;;7403797;19;19925;-75
2023/03/07 08:33:37;;;;;;;16.92;8.65;;;13.10;85.80;;;;;;7405105;19;19915;-75
2023/03/07 08:36:04;;;;;;;17.80;8.27;;;13.20;85.30;;;;;;7401518;19;19926;-73
2023/03/07 08:38:31;;;;;;;16.73;8.70;;;13.40;84.90;;;;;;7405104;19;20430;-75
2023/03/07 08:41:04;;;;;;;16.55;9.25;;;15.30;82.30;;;;;;7404540;19;19923;-74
2023/03/07 08:43:32;;;;;;;18.38;10.07;;;16.90;76.30;;;;;;7403830;19;20387;-75
2023/03/07 08:46:04;;;;;;;19.27;11.52;;;18.10;74.00;;;;;;7404317;19;20573;-75
2023/03/07 08:48:30;;;;;;;20.00;10.98;;;18.50;72.10;;;;;;7403290;19;19914;-75
2023/03/07 08:50:56;;;;;;;20.90;11.45;;;19.40;69.80;;;;;;7387587;19;19946;-74
2023/03/07 08:53:22;;;;;;;20.90;11.75;;;20.10;69.80;;;;;;7402963;19;21362;-76
2023/03/07 08:55:48;;;;;;;18.92;10.57;;;20.90;67.10;;;;;;7396636;19;20315;-74
2023/03/07 08:58:14;;;;;;;17.42;10.50;;;21.50;66.10;;;;;;7327066;19;19941;-75
2023/03/07 09:00:41;;;;;;;15.38;10.10;;;22.10;64.70;;;;;;7402733;19;19918;-75
2023/03/07 09:03:07;;;;;;;16.67;10.90;;;22.70;62.80;;;;;;7400951;19;19917;-74
2023/03/07 09:05:37;;;;;;;15.65;10.85;;;22.90;62.10;;;;;;7403396;19;19914;-74
2023/03/07 09:08:04;;;;;;;18.58;11.32;;;22.80;61.90;;;;;;7402111;19;19911;-74
2023/03/07 09:10:30;;;;;;;17.42;12.15;;;23.10;61.80;;;;;;7393306;19;20248;-75
2023/03/07 09:12:57;;;;;;;18.50;12.23;;;23.10;60.80;;;;;;7393266;19;19918;-74
2023/03/07 09:15:23;;;;;;;19.30;13.40;;;23.10;60.50;;;;;;7380979;19;19938;-74
2023/03/07 09:17:49;;;;;;;28.35;15.65;;;21.50;61.50;;;;;;7398180;19;19943;-75
2023/03/07 09:20:15;;;;;;;24.77;13.88;;;21.60;62.20;;;;;;7393809;19;19919;-75
2023/03/07 09:22:41;;;;;;;25.40;15.27;;;21.70;63.30;;;;;;7396355;19;19937;-74
2023/03/07 09:25:09;;;;;;;24.83;17.20;;;21.60;63.10;;;;;;7399732;19;20578;-75
2023/03/07 09:27:35;;;;;;;28.52;18.15;;;20.30;64.20;;;;;;7390934;19;19911;-74
2023/03/07 09:30:01;;;;;;;29.90;18.83;;;19.80;65.90;;;;;;7395993;19;19918;-75
2023/03/07 09:32:26;;;;;;;25.33;16.65;;;20.50;66.70;;;;;;7385103;19;19929;-74
2023/03/07 09:34:52;;;;;;;24.90;13.88;;;20.70;65.10;;;;;;7393096;19;19922;-75
2023/03/07 09:37:19;;;;;;;21.88;13.98;;;18.70;67.90;;;;;;7392027;19;19974;-75
2023/03/07 09:39:47;;;;;;;25.33;14.85;;;18.80;68.00;;;;;;7395184;19;19918;-75
2023/03/07 09:42:50;;;;;;;20.45;11.43;;;18.10;67.60;;;;;;7395591;19;20248;-74
2023/03/07 09:45:34;;;;;;;15.73;9.82;;;17.60;68.10;;;;;;7387116;19;19966;-74
2023/03/07 09:48:24;;;;;;;19.77;10.52;;;17.50;69.80;;;;;;7375255;19;19933;-73
2023/03/07 09:51:10;;;;;;;16.52;9.07;;;17.50;69.20;;;;;;7392272;19;19917;-74
2023/03/07 09:54:02;;;;;;;11.18;6.10;;;17.20;69.90;;;;;;7409296;19;19917;-74
2023/03/07 09:56:46;;;;;;;9.60;6.20;;;16.20;72.50;;;;;;7392390;19;20414;-74
2023/03/07 09:59:36;;;;;;;10.40;5.75;;;15.80;74.30;;;;;;7403282;19;19922;-75
2023/03/07 10:02:36;;;;;;;9.73;6.13;;;15.00;76.90;;;;;;7398015;19;19939;-75
2023/03/07 10:05:08;;;;;;;9.65;5.32;;;15.30;76.60;;;;;;7399979;19;19910;-74
2023/03/07 10:07:35;;;;;;;11.27;6.18;;;15.50;76.30;;;;;;7391532;19;20394;-73
2023/03/07 10:10:04;;;;;;;;;;;15.50;75.90;;;;;;7397611;19;19931;-74
2023/03/07 10:12:41;;;;;;;11.15;6.57;;;15.70;76.20;;;;;;7402951;19;19914;-74
2023/03/07 10:15:32;;;;;;;12.82;7.03;;;16.00;75.80;;;;;;7392990;19;19947;-74
2023/03/07 10:18:18;;;;;;;18.17;7.50;;;16.20;75.50;;;;;;7402183;19;21605;-74
2023/03/07 10:21:03;;;;;;;13.65;8.38;;;15.70;77.30;;;;;;7398921;19;19970;-74
2023/03/07 10:23:48;;;;;;;;;;;15.90;76.60;;;;;;7372629;19;20270;-74
2023/03/07 10:26:42;;;;;;;15.63;7.95;;;15.10;79.10;;;;;;7405027;19;20284;-74
2023/03/07 10:29:17;;;;;;;16.48;9.25;;;15.50;77.40;;;;;;7392187;19;19911;-75
2023/03/07 10:31:50;;;;;;;16.92;8.05;;;15.40;77.80;;;;;;7404451;19;19946;-74
2023/03/07 10:34:27;;;;;;;15.65;8.68;;;16.00;77.50;;;;;;7409854;19;19939;-74
2023/03/07 10:37:01;;;;;;;16.92;10.43;;;16.30;76.60;;;;;;7370164;19;20316;-74
2023/03/07 10:39:32;;;;;;;16.15;9.35;;;16.60;74.90;;;;;;7391684;19;19911;-74
2023/03/07 10:41:58;;;;;;;17.55;9.48;;;17.60;74.10;;;;;;7399181;19;20247;-74
2023/03/07 10:44:30;;;;;;;14.90;8.38;;;17.60;72.10;;;;;;7405569;19;19915;-74
2023/03/07 10:46:58;;;;;;;18.08;9.02;;;17.80;72.70;;;;;;7396518;19;19919;-73
2023/03/07 10:49:35;;;;;;;18.40;9.57;;;17.60;72.80;;;;;;7389359;19;19910;-75
2023/03/07 10:52:25;;;;;;;14.40;9.02;;;17.50;74.10;;;;;;7394696;19;19918;-74
2023/03/07 10:54:51;;;;;;;15.23;8.85;;;18.20;72.50;;;;;;7398851;19;20216;-74
2023/03/07 10:57:25;;;;;;;18.27;9.55;;;18.10;72.10;;;;;;7408005;19;20033;-75
2023/03/07 10:59:50;;;;;;;16.77;10.13;;;17.90;71.50;;;;;;7399442;19;19923;-74
2023/03/07 11:02:33;;;;;;;19.33;11.02;;;18.80;71.50;;;;;;7398520;19;19921;-75
2023/03/07 11:04:59;;;;;;;15.98;10.15;;;18.30;72.00;;;;;;7403679;19;20533;-74
2023/03/07 11:07:35;;;;;;;16.75;9.60;;;18.50;71.80;;;;;;7401130;19;19914;-74
2023/03/07 11:10:39;;;;;;;19.67;10.77;;;18.40;72.50;;;;;;7398176;19;20336;-74
2023/03/07 11:13:14;;;;;;;14.02;9.90;;;18.20;72.50;;;;;;7396835;19;20271;-75
2023/03/07 11:15:40;;;;;;;19.35;10.55;;;18.90;72.30;;;;;;7394236;19;19922;-75
2023/03/07 11:18:36;;;;;;;20.70;10.10;;;18.80;72.20;;;;;;7396884;19;19911;-74
2023/03/07 11:21:02;;;;;;;15.15;9.18;;;18.80;72.50;;;;;;7401786;19;19946;-73
2023/03/07 11:23:31;;;;;;;18.05;9.85;;;19.60;71.30;;;;;;7398161;19;19914;-75
2023/03/07 11:26:21;;;;;;;16.60;10.70;;;19.60;71.30;;;;;;7389828;19;19963;-75
2023/03/07 11:28:47;;;;;;;16.88;11.25;;;19.70;70.80;;;;;;7383683;19;19915;-75
2023/03/07 11:31:13;;;;;;;16.33;11.23;;;18.90;71.70;;;;;;7386668;19;19918;-74
2023/03/07 11:33:57;;;;;;;18.05;10.50;;;18.90;71.90;;;;;;7400840;19;19986;-74
2023/03/07 11:36:35;;;;;;;18.85;10.98;;;18.70;73.00;;;;;;7403516;19;19946;-74
2023/03/07 11:39:17;;;;;;;15.60;9.75;;;18.00;74.50;;;;;;7406023;19;19925;-74
2023/03/07 11:42:02;;;;;;;18.23;11.93;;;17.90;75.60;;;;;;7404532;19;19919;-75
2023/03/07 11:44:42;;;;;;;18.25;11.00;;;19.00;74.20;;;;;;7405955;19;19935;-76
2023/03/07 11:47:36;;;;;;;20.40;13.30;;;18.90;73.80;;;;;;7394822;19;20521;-74
2023/03/07 11:50:22;;;;;;;20.45;13.65;;;18.00;75.00;;;;;;7398274;19;19911;-75
2023/03/07 11:53:15;;;;;;;23.13;13.10;;;18.20;76.20;;;;;;7391286;19;19933;-74
2023/03/07 11:55:47;;;;;;;27.20;13.40;;;19.00;75.60;;;;;;7397087;19;19919;-74
2023/03/07 11:58:29;;;;;;;19.40;13.32;;;18.70;75.90;;;;;;7402733;19;19925;-75
2023/03/07 12:00:58;;;;;;;23.20;13.82;;;18.20;76.60;;;;;;7404340;19;19926;-76
2023/03/07 12:03:43;;;;;;;21.38;12.48;;;17.60;79.20;;;;;;7404842;19;19956;-75
2023/03/07 12:06:35;;;;;;;21.33;13.23;;;17.70;79.10;;;;;;7404113;19;20385;-74
2023/03/07 12:09:11;;;;;;;22.30;14.80;;;17.30;80.70;;;;;;7398081;19;19918;-75
2023/03/07 12:11:42;;;;;;;22.52;13.82;;;17.10;81.00;;;;;;7372538;19;19925;-74
2023/03/07 12:14:33;;;;;;;25.65;13.60;;;17.10;81.70;;;;;;7404291;19;19921;-75
2023/03/07 12:17:28;;;;;;;25.50;14.68;;;17.30;82.00;;;;;;7406132;19;19931;-74
2023/03/07 12:20:19;;;;;;;25.35;15.63;;;17.00;83.50;;;;;;7405191;19;19918;-74
2023/03/07 12:22:54;;;;;;;27.20;15.50;;;17.00;84.50;;;;;;7386599;19;20347;-75
2023/03/07 12:25:25;;;;;;;23.98;14.05;;;17.10;84.70;;;;;;7394722;19;19954;-76
2023/03/07 12:28:13;;;;;;;32.22;17.35;;;16.90;85.10;;;;;;7344541;19;19915;-74
2023/03/07 12:31:13;;;;;;;25.42;15.07;;;16.80;86.40;;;;;;7363248;19;19907;-74
2023/03/07 12:33:55;;;;;;;29.02;16.42;;;17.10;85.70;;;;;;7363164;19;19915;-74
2023/03/07 12:36:41;;;;;;;23.50;14.48;;;17.20;85.60;;;;;;7403295;19;19943;-75
2023/03/07 12:39:15;;;;;;;23.38;14.50;;;17.50;85.10;;;;;;7396256;19;19925;-73
2023/03/07 12:41:49;;;;;;;25.27;15.45;;;17.00;85.50;;;;;;7392502;19;20300;-75
2023/03/07 12:44:54;;;;;;;27.17;15.27;;;17.30;85.40;;;;;;7371357;19;19922;-76
2023/03/07 12:47:36;;;;;;;26.05;14.32;;;17.10;85.90;;;;;;7378199;19;20343;-74
2023/03/07 12:50:14;;;;;;;26.33;16.00;;;17.70;85.00;;;;;;7390648;19;19922;-76
2023/03/07 12:52:48;;;;;;;24.65;15.35;;;18.80;82.20;;;;;;7397767;19;19922;-74
2023/03/07 12:55:57;;;;;;;23.13;14.43;;;19.20;81.30;;;;;;7393123;19;19915;-74
2023/03/07 12:58:48;;;;;;;27.63;16.02;;;19.40;80.30;;;;;;7390629;19;20439;-75